createdAt,value
2019-04-28T00:03:00.383Z,0.08
2019-04-28T00:08:07.115Z,0.05
2019-04-28T00:13:15.940Z,0.05
2019-04-28T00:18:24.692Z,0.10
2019-04-28T00:23:33.493Z,0.01
2019-04-28T00:28:42.178Z,0.10
2019-04-28T00:33:51.435Z,0.14
2019-04-28T00:39:01.574Z,0.07
2019-04-28T00:44:08.326Z,0.18
2019-04-28T00:49:16.986Z,0.12
2019-04-28T00:54:26.205Z,0.30
2019-04-28T00:59:34.857Z,0.02
2019-04-28T01:04:43.589Z,0.16
2019-04-28T01:09:52.220Z,0.20
2019-04-28T01:15:04.576Z,0.14
2019-04-28T01:20:09.781Z,0.13
2019-04-28T01:25:17.764Z,0.19
2019-04-28T01:30:26.405Z,0.01
2019-04-28T01:35:35.511Z,0.17
2019-04-28T01:40:44.167Z,0.15
2019-04-28T01:45:53.386Z,0.31
2019-04-28T01:51:02.041Z,0.06
2019-04-28T01:56:10.862Z,0.03
2019-04-28T02:01:20.407Z,0.12
2019-04-28T02:06:29.841Z,0.21
2019-04-28T02:11:36.050Z,0.09
2019-04-28T02:16:44.865Z,0.02
2019-04-28T02:21:53.508Z,0.17
2019-04-28T02:27:02.318Z,0.11
2019-04-28T02:32:10.972Z,0.10
2019-04-28T02:37:20.534Z,0.09
2019-04-28T02:42:30.655Z,0.15
2019-04-28T02:47:36.265Z,0.13
2019-04-28T02:52:44.911Z,0.08
2019-04-28T02:57:53.729Z,0.08
2019-04-28T03:03:02.382Z,0.08
2019-04-28T03:08:11.326Z,0.06
2019-04-28T03:13:20.894Z,0.02
2019-04-28T03:18:28.018Z,0.06
2019-04-28T03:23:36.733Z,0.12
2019-04-28T03:28:45.557Z,0.14
2019-04-28T03:33:55.970Z,0.10
2019-04-28T03:39:02.651Z,0.09
2019-04-28T03:44:11.618Z,0.10
2019-04-28T03:49:21.056Z,0.11
2019-04-28T03:54:30.345Z,0.15
2019-04-28T03:59:36.868Z,0.12
2019-04-28T04:04:45.507Z,0.14
2019-04-28T04:09:54.240Z,0.23
2019-04-28T04:15:04.034Z,0.09
2019-04-28T04:20:11.204Z,0.18
2019-04-28T04:25:20.401Z,0.05
2019-04-28T04:30:30.898Z,0.17
2019-04-28T04:35:36.349Z,0.35
2019-04-28T04:41:51.134Z,0.24
2019-04-28T04:47:00.970Z,0.13
2019-04-28T04:52:10.391Z,0.12
2019-04-28T04:57:16.221Z,0.08
2019-04-28T05:02:29.573Z,0.37
2019-04-28T05:07:33.517Z,0.14
2019-04-28T05:12:42.312Z,0.02
2019-04-28T05:17:50.935Z,0.11
2019-04-28T05:23:00.644Z,0.03
2019-04-28T05:28:07.925Z,0.06
2019-04-28T05:33:16.737Z,0.11
2019-04-28T05:38:25.754Z,0.04
2019-04-28T05:43:34.523Z,0.16
2019-04-28T05:48:43.166Z,0.23
2019-04-28T05:53:53.817Z,0.41
2019-04-28T05:59:00.634Z,0.10
2019-04-28T06:04:09.394Z,0.21
2019-04-28T06:09:16.617Z,0.24
2019-04-28T06:14:25.430Z,0.13
2019-04-28T06:19:34.088Z,0.37
2019-04-28T06:24:42.820Z,0.07
2019-04-28T06:29:51.450Z,0.11
2019-04-28T06:35:00.527Z,0.28
2019-04-28T06:40:09.163Z,0.27
2019-04-28T06:45:17.970Z,0.16
2019-04-28T06:50:26.653Z,0.20
2019-04-28T06:55:35.384Z,0.48
2019-04-28T07:00:44.040Z,0.12
2019-04-28T07:05:52.882Z,0.52
2019-04-28T07:11:01.556Z,0.21
2019-04-28T07:16:10.301Z,0.21
2019-04-28T07:21:19.050Z,0.30
2019-04-28T07:26:27.910Z,0.20
2019-04-28T07:31:36.563Z,0.16
2019-04-28T07:36:45.650Z,0.07
2019-04-28T07:41:54.289Z,0.40
2019-04-28T07:47:03.060Z,0.53
2019-04-28T07:52:11.837Z,0.56
2019-04-28T07:57:20.612Z,0.54
2019-04-28T08:02:29.263Z,0.27
2019-04-28T08:07:38.003Z,0.33
2019-04-28T08:12:49.140Z,0.30
2019-04-28T08:17:54.984Z,0.49
2019-04-28T08:23:03.637Z,0.65
2019-04-28T08:28:12.477Z,0.22
2019-04-28T08:33:21.142Z,0.36
2019-04-28T08:38:29.881Z,0.41
2019-04-28T08:43:38.517Z,0.71
2019-04-28T08:48:47.328Z,0.21
2019-04-28T08:53:56.017Z,0.22
2019-04-28T08:59:05.072Z,0.20
2019-04-28T09:04:15.423Z,0.70
2019-04-28T09:09:21.858Z,0.94
2019-04-28T09:14:31.046Z,0.43
2019-04-28T09:19:42.318Z,0.58
2019-04-28T09:24:47.953Z,0.66
2019-04-28T09:29:56.733Z,0.27
2019-04-28T09:35:05.378Z,0.40
2019-04-28T09:40:14.224Z,0.23
2019-04-28T09:45:22.872Z,0.48
2019-04-28T09:55:40.386Z,0.08
2019-04-28T10:00:49.145Z,0.42
2019-04-28T10:05:57.801Z,0.68
2019-04-28T10:11:06.492Z,0.45
2019-04-28T10:16:15.124Z,0.40
2019-04-28T10:21:23.909Z,0.38
2019-04-28T10:26:32.548Z,0.11
2019-04-28T10:31:41.299Z,0.05
2019-04-28T10:36:49.953Z,0.02
2019-04-28T10:41:58.779Z,0.10
2019-04-28T10:47:07.738Z,0.01
2019-04-28T10:52:16.567Z,0.12
2019-04-28T10:57:25.207Z,0.20
2019-04-28T11:02:34.027Z,0.10
2019-04-28T11:07:42.699Z,0.12
2019-04-28T11:12:51.497Z,0.17
2019-04-28T11:18:00.161Z,0.03
2019-04-28T11:23:08.890Z,0.13
2019-04-28T11:28:17.550Z,0.17
2019-04-28T11:33:26.374Z,0.09
2019-04-28T11:38:35.047Z,0.05
2019-04-28T11:43:43.890Z,0.15
2019-04-28T11:48:52.581Z,0.02
2019-04-28T11:54:01.420Z,0.04
2019-04-28T11:59:10.054Z,0.14
2019-04-28T12:04:18.796Z,0.01
2019-04-28T12:09:27.463Z,0.00
2019-04-28T12:14:36.392Z,0.00
2019-04-28T12:19:45.036Z,0.00
2019-04-28T12:24:53.852Z,0.11
2019-04-28T12:30:02.500Z,0.04
2019-04-28T12:35:11.345Z,0.00
2019-04-28T12:40:22.487Z,0.05
2019-04-28T12:45:34.922Z,0.00
2019-04-28T12:50:36.501Z,0.09
2019-04-28T12:56:51.434Z,0.00
2019-04-28T13:02:00.050Z,0.00
2019-04-28T13:07:08.808Z,0.16
2019-04-28T13:12:17.446Z,0.01
2019-04-28T13:17:26.193Z,0.17
2019-04-28T13:22:34.826Z,0.02
2019-04-28T13:27:43.662Z,0.00
2019-04-28T13:32:52.648Z,0.10
2019-04-28T13:38:01.324Z,0.02
2019-04-28T13:43:10.001Z,0.07
2019-04-28T13:48:18.742Z,0.01
2019-04-28T13:53:27.362Z,0.00
2019-04-28T13:58:36.292Z,0.05
2019-04-28T14:03:44.988Z,0.10
2019-04-28T14:08:53.697Z,0.00
2019-04-28T14:14:02.348Z,0.00
2019-04-28T14:19:11.020Z,0.00
2019-04-28T14:24:20.511Z,0.13
2019-04-28T14:29:29.185Z,0.11
2019-04-28T14:34:37.821Z,0.19
2019-04-28T14:39:46.663Z,0.06
2019-04-28T14:44:55.644Z,0.08
2019-04-28T14:50:04.344Z,0.01
2019-04-28T14:55:12.987Z,0.07
2019-04-28T15:00:21.789Z,0.16
2019-04-28T15:05:30.753Z,0.02
2019-04-28T15:10:39.465Z,0.15
2019-04-28T15:15:48.185Z,0.02
2019-04-28T15:20:56.839Z,0.05
2019-04-28T15:26:05.468Z,0.06
2019-04-28T15:31:14.263Z,0.05
2019-04-28T15:36:22.905Z,0.00
2019-04-28T15:41:31.640Z,0.10
2019-04-28T15:46:40.289Z,0.23
2019-04-28T15:51:48.995Z,0.01
2019-04-28T15:56:57.652Z,0.22
2019-04-28T16:02:06.469Z,0.30
2019-04-28T16:07:24.674Z,0.17
2019-04-28T16:12:23.852Z,0.14
2019-04-28T16:17:32.499Z,0.04
2019-04-28T16:22:41.204Z,0.06
2019-04-28T16:27:49.857Z,0.02
2019-04-28T16:32:58.692Z,0.05
2019-04-28T16:38:07.373Z,0.06
2019-04-28T16:43:16.177Z,0.00
2019-04-28T16:48:24.841Z,0.04
2019-04-28T16:53:33.664Z,0.08
2019-04-28T16:58:42.316Z,0.05
2019-04-28T17:03:51.066Z,0.06
2019-04-28T17:08:59.716Z,0.00
2019-04-28T17:14:08.509Z,0.02
2019-04-28T17:19:17.149Z,0.04
2019-04-28T17:24:26.027Z,0.00
2019-04-28T17:29:37.626Z,0.02
2019-04-28T17:34:42.966Z,0.00
2019-04-28T17:39:51.605Z,0.02
2019-04-28T17:45:00.371Z,0.00
2019-04-28T17:50:09.029Z,0.03
2019-04-28T17:55:16.261Z,0.02
2019-04-28T18:00:24.907Z,0.06
2019-04-28T18:05:33.605Z,0.00
2019-04-28T18:10:42.294Z,0.05
2019-04-28T18:15:51.138Z,0.01
2019-04-28T18:20:59.993Z,0.01
2019-04-28T18:26:08.853Z,0.01
2019-04-28T18:31:18.403Z,0.04
2019-04-28T18:36:27.353Z,0.01
2019-04-28T18:41:36.007Z,0.00
2019-04-28T18:46:44.825Z,0.00
2019-04-28T18:51:53.832Z,0.00
2019-04-28T18:57:02.677Z,0.02
2019-04-28T19:02:11.330Z,0.07
2019-04-28T19:07:20.037Z,0.00
2019-04-28T19:12:28.809Z,0.00
2019-04-28T19:17:37.670Z,0.00
2019-04-28T19:22:46.341Z,0.00
2019-04-28T19:27:55.087Z,0.00
2019-04-28T19:33:03.725Z,0.03
2019-04-28T19:38:12.474Z,0.02
2019-04-28T19:43:21.133Z,0.03
2019-04-28T19:48:30.110Z,0.07
2019-04-28T19:53:38.748Z,0.00
2019-04-28T19:58:47.482Z,0.02
2019-04-28T20:03:56.139Z,0.02
2019-04-28T20:09:04.931Z,0.04
2019-04-28T20:14:13.679Z,0.03
2019-04-28T20:19:22.474Z,0.00
2019-04-28T20:24:31.085Z,0.02
2019-04-28T20:29:40.197Z,0.08
2019-04-28T20:34:48.851Z,0.11
2019-04-28T20:39:57.562Z,0.09
2019-04-28T20:45:06.334Z,0.10
2019-04-28T20:50:14.937Z,0.06
2019-04-28T20:55:23.683Z,0.03
2019-04-28T21:00:32.407Z,0.10
2019-04-28T21:05:41.045Z,0.07
2019-04-28T21:10:50.085Z,0.09
2019-04-28T21:15:58.735Z,0.18
2019-04-28T21:21:07.472Z,0.08
2019-04-28T21:27:22.149Z,0.03
2019-04-28T21:32:30.852Z,0.02
2019-04-28T21:37:39.585Z,0.06
2019-04-28T21:42:48.261Z,0.03
2019-04-28T21:47:56.893Z,0.08
2019-04-28T21:53:05.610Z,0.01
2019-04-28T21:58:14.239Z,0.03
2019-04-28T22:03:22.993Z,0.16
2019-04-28T22:08:31.624Z,0.05
2019-04-28T22:13:40.346Z,0.06
2019-04-28T22:18:48.985Z,0.01
2019-04-28T22:23:57.713Z,0.40
2019-04-28T22:29:06.361Z,0.06
2019-04-28T22:34:15.069Z,0.41
2019-04-28T22:39:24.050Z,0.11
2019-04-28T22:44:32.715Z,0.24
2019-04-28T22:49:41.358Z,0.12
2019-04-28T22:54:50.065Z,0.07
2019-04-28T22:59:58.732Z,0.14
2019-04-28T23:05:07.440Z,0.11
2019-04-28T23:10:16.106Z,0.05
2019-04-28T23:15:24.836Z,0.09
2019-04-28T23:20:33.553Z,0.11
2019-04-28T23:25:42.626Z,0.11
2019-04-28T23:30:51.264Z,0.06
2019-04-28T23:35:59.986Z,0.10
2019-04-28T23:41:08.634Z,0.14
2019-04-28T23:46:17.348Z,0.14
2019-04-28T23:51:26.053Z,0.10
2019-04-28T23:56:35.101Z,0.14
